createdAt,value
2022-11-23T00:00:47.890Z,8.10
2022-11-23T00:03:16.661Z,8.20
2022-11-23T00:05:44.581Z,8.10
2022-11-23T00:08:13.866Z,8.10
2022-11-23T00:10:42.069Z,8.10
2022-11-23T00:13:10.051Z,8.10
2022-11-23T00:15:37.945Z,8.10
2022-11-23T00:18:05.880Z,8.10
2022-11-23T00:20:33.856Z,8.50
2022-11-23T00:23:01.771Z,8.10
2022-11-23T00:25:31.008Z,8.10
2022-11-23T00:27:58.978Z,8.10
2022-11-23T00:30:26.946Z,8.10
2022-11-23T00:32:56.542Z,8.50
2022-11-23T00:35:24.745Z,8.10
2022-11-23T00:37:52.654Z,8.20
2022-11-23T00:40:20.585Z,8.20
2022-11-23T00:42:49.848Z,8.30
2022-11-23T00:45:17.876Z,8.20
2022-11-23T00:47:45.835Z,8.20
2022-11-23T00:50:13.756Z,8.20
2022-11-23T00:52:41.625Z,8.20
2022-11-23T00:55:10.239Z,8.20
2022-11-23T00:57:38.188Z,8.20
2022-11-23T01:00:09.140Z,8.20
2022-11-23T01:02:37.289Z,8.20
2022-11-23T01:05:05.384Z,8.20
2022-11-23T01:07:33.681Z,8.20
2022-11-23T01:10:01.619Z,8.20
2022-11-23T01:12:30.419Z,8.20
2022-11-23T01:14:58.321Z,8.20
2022-11-23T01:17:27.646Z,8.20
2022-11-23T01:19:55.569Z,9.30
2022-11-23T01:22:23.500Z,8.20
2022-11-23T01:24:52.110Z,8.20
2022-11-23T01:27:19.982Z,8.40
2022-11-23T01:29:47.931Z,8.60
2022-11-23T01:32:15.865Z,8.30
2022-11-23T01:34:45.168Z,8.20
2022-11-23T01:37:13.089Z,8.20
2022-11-23T01:39:40.966Z,8.20
2022-11-23T01:42:08.977Z,8.20
2022-11-23T01:44:39.620Z,8.20
2022-11-23T01:47:08.931Z,8.20
2022-11-23T01:49:40.063Z,8.40
2022-11-23T01:52:13.751Z,8.20
2022-11-23T01:54:45.985Z,8.70
2022-11-23T01:57:18.905Z,8.20
2022-11-23T01:59:47.780Z,8.20
2022-11-23T02:02:16.594Z,8.20
2022-11-23T02:04:48.749Z,8.20
2022-11-23T02:07:19.401Z,8.20
2022-11-23T02:09:48.681Z,8.20
2022-11-23T02:12:17.022Z,8.20
2022-11-23T02:14:45.914Z,8.30
2022-11-23T02:17:14.355Z,8.20
2022-11-23T02:19:54.171Z,8.20
2022-11-23T02:22:31.394Z,8.20
2022-11-23T02:25:02.952Z,8.10
2022-11-23T02:27:32.378Z,8.30
2022-11-23T02:30:01.954Z,8.00
2022-11-23T02:32:30.901Z,8.00
2022-11-23T02:34:58.837Z,8.30
2022-11-23T02:37:26.905Z,8.00
2022-11-23T02:39:57.454Z,8.10
2022-11-23T02:45:20.609Z,8.10
2022-11-23T02:47:49.064Z,8.10
2022-11-23T02:50:17.213Z,8.10
2022-11-23T02:52:45.173Z,8.10
2022-11-23T02:55:13.173Z,8.10
2022-11-23T02:57:41.072Z,8.10
2022-11-23T03:00:10.476Z,8.10
2022-11-23T03:02:39.718Z,8.10
2022-11-23T03:05:08.624Z,8.10
2022-11-23T03:07:36.915Z,8.10
2022-11-23T03:10:06.175Z,8.10
2022-11-23T03:12:34.170Z,8.10
2022-11-23T03:15:02.037Z,8.10
2022-11-23T03:17:30.297Z,8.20
2022-11-23T03:19:59.563Z,8.20
2022-11-23T03:22:27.694Z,8.20
2022-11-23T03:24:56.380Z,8.30
2022-11-23T03:27:24.583Z,8.20
2022-11-23T03:29:52.527Z,8.20
2022-11-23T03:32:20.497Z,8.20
2022-11-23T03:34:48.417Z,8.20
2022-11-23T03:37:18.317Z,8.20
2022-11-23T03:39:47.725Z,8.20
2022-11-23T03:42:15.754Z,8.20
2022-11-23T03:44:43.699Z,8.20
2022-11-23T03:47:12.126Z,8.30
2022-11-23T03:49:40.058Z,8.30
2022-11-23T03:52:07.989Z,8.80
2022-11-23T03:54:37.196Z,8.30
2022-11-23T03:57:05.180Z,9.70
2022-11-23T03:59:33.347Z,9.60
2022-11-23T04:02:01.476Z,8.30
2022-11-23T04:04:29.422Z,8.60
2022-11-23T04:06:57.347Z,8.80
2022-11-23T04:09:26.177Z,8.30
2022-11-23T04:11:55.419Z,8.30
2022-11-23T04:14:23.596Z,8.40
2022-11-23T04:16:51.513Z,8.40
2022-11-23T04:19:19.535Z,8.40
2022-11-23T04:21:47.573Z,8.40
2022-11-23T04:24:15.522Z,8.40
2022-11-23T04:26:43.420Z,8.40
2022-11-23T04:29:12.675Z,8.40
2022-11-23T04:31:40.604Z,8.40
2022-11-23T04:34:08.509Z,8.40
2022-11-23T04:36:36.476Z,8.40
2022-11-23T04:39:04.813Z,8.50
2022-11-23T04:41:32.806Z,8.40
2022-11-23T04:44:00.797Z,8.40
2022-11-23T04:46:30.119Z,8.40
2022-11-23T04:48:58.012Z,8.40
2022-11-23T04:51:25.950Z,8.40
2022-11-23T04:53:53.817Z,8.40
2022-11-23T04:56:21.745Z,8.40
2022-11-23T04:58:49.730Z,8.40
2022-11-23T05:01:17.717Z,8.40
2022-11-23T05:03:47.313Z,8.40
2022-11-23T05:06:15.332Z,8.40
2022-11-23T05:08:43.397Z,8.40
2022-11-23T05:11:11.402Z,8.40
2022-11-23T05:13:39.370Z,8.40
2022-11-23T05:16:07.785Z,8.40
2022-11-23T05:18:35.697Z,8.40
2022-11-23T05:21:05.072Z,8.40
2022-11-23T05:23:33.034Z,8.40
2022-11-23T05:26:00.958Z,8.30
2022-11-23T05:28:44.308Z,8.30
2022-11-23T05:31:12.645Z,8.30
2022-11-23T05:33:41.356Z,8.30
2022-11-23T05:36:13.744Z,8.30
2022-11-23T05:38:41.615Z,8.20
2022-11-23T05:41:09.581Z,8.20
2022-11-23T05:43:37.520Z,8.20
2022-11-23T05:46:05.891Z,8.20
2022-11-23T05:48:33.773Z,8.20
2022-11-23T05:51:05.105Z,8.30
2022-11-23T05:53:35.185Z,8.10
2022-11-23T05:56:03.204Z,9.20
2022-11-23T05:58:31.451Z,8.20
2022-11-23T06:01:00.277Z,8.10
2022-11-23T06:03:28.441Z,8.10
2022-11-23T06:05:56.372Z,8.20
2022-11-23T06:08:24.320Z,8.10
2022-11-23T06:10:53.565Z,8.10
2022-11-23T06:13:21.517Z,8.10
2022-11-23T06:15:49.416Z,8.10
2022-11-23T06:18:17.319Z,8.00
2022-11-23T06:20:45.633Z,8.00
2022-11-23T06:23:13.553Z,8.00
2022-11-23T06:25:41.575Z,7.90
2022-11-23T06:28:10.861Z,7.90
2022-11-23T06:30:38.792Z,7.80
2022-11-23T06:33:06.860Z,7.80
2022-11-23T06:35:34.785Z,7.70
2022-11-23T06:38:02.842Z,7.70
2022-11-23T06:40:31.251Z,7.60
2022-11-23T06:43:00.909Z,7.80
2022-11-23T06:45:30.273Z,7.50
2022-11-23T06:47:58.240Z,7.80
2022-11-23T06:50:26.274Z,7.50
2022-11-23T06:53:00.442Z,7.40
2022-11-23T06:55:28.569Z,7.40
2022-11-23T06:57:58.049Z,7.40
2022-11-23T07:00:26.404Z,7.40
2022-11-23T07:02:56.724Z,7.40
2022-11-23T07:05:25.385Z,7.40
2022-11-23T07:07:53.779Z,7.40
2022-11-23T07:10:21.975Z,7.40
2022-11-23T07:12:50.022Z,8.30
2022-11-23T07:15:18.099Z,7.40
2022-11-23T07:17:46.004Z,7.50
2022-11-23T07:20:15.829Z,7.50
2022-11-23T07:22:43.766Z,7.90
2022-11-23T07:25:16.635Z,7.60
2022-11-23T07:27:44.748Z,7.50
2022-11-23T07:30:13.487Z,7.50
2022-11-23T07:32:41.445Z,7.60
2022-11-23T07:35:11.387Z,7.60
2022-11-23T07:37:40.627Z,7.60
2022-11-23T07:40:09.784Z,7.60
2022-11-23T07:42:44.421Z,7.70
2022-11-23T07:45:13.586Z,7.70
2022-11-23T07:47:41.798Z,7.90
2022-11-23T07:50:11.775Z,7.70
2022-11-23T07:52:41.805Z,7.70
2022-11-23T07:55:10.513Z,7.80
2022-11-23T07:57:38.474Z,7.80
2022-11-23T08:00:07.721Z,7.70
2022-11-23T08:02:35.640Z,7.80
2022-11-23T08:05:03.661Z,7.80
2022-11-23T08:07:31.566Z,7.90
2022-11-23T08:10:00.806Z,7.80
2022-11-23T08:12:28.787Z,7.90
2022-11-23T08:14:56.695Z,7.90
2022-11-23T08:17:24.606Z,7.90
2022-11-23T08:19:52.505Z,7.90
2022-11-23T08:22:20.473Z,7.90
2022-11-23T08:24:48.453Z,8.00
2022-11-23T08:27:17.796Z,7.90
2022-11-23T08:29:45.681Z,7.90
2022-11-23T08:32:13.709Z,7.90
2022-11-23T08:34:43.622Z,8.00
2022-11-23T08:37:11.633Z,7.90
2022-11-23T08:39:39.552Z,7.90
2022-11-23T08:42:07.501Z,7.90
2022-11-23T08:44:36.765Z,8.00
2022-11-23T08:47:04.635Z,7.90
2022-11-23T08:49:32.605Z,8.00
2022-11-23T08:52:00.770Z,8.00
2022-11-23T08:54:28.661Z,8.00
2022-11-23T08:56:56.557Z,8.10
2022-11-23T08:59:24.600Z,8.00
2022-11-23T09:01:53.925Z,8.10
2022-11-23T09:04:21.862Z,8.10
2022-11-23T09:06:49.775Z,8.10
2022-11-23T09:09:17.682Z,8.10
2022-11-23T09:11:45.664Z,8.10
2022-11-23T09:14:13.540Z,8.00
2022-11-23T09:16:41.497Z,8.10
2022-11-23T09:19:14.108Z,8.10
2022-11-23T09:21:42.976Z,8.10
2022-11-23T09:24:12.023Z,8.10
2022-11-23T09:26:40.053Z,8.10
2022-11-23T09:29:08.968Z,8.10
2022-11-23T09:31:37.037Z,8.10
2022-11-23T09:34:05.333Z,8.10
2022-11-23T09:36:34.738Z,8.10
2022-11-23T09:39:02.628Z,8.20
2022-11-23T09:42:13.516Z,8.20
2022-11-23T09:45:01.555Z,8.10
2022-11-23T09:47:47.221Z,8.20
2022-11-23T09:50:23.041Z,8.10
2022-11-23T09:52:53.475Z,8.20
2022-11-23T09:55:29.776Z,8.20
2022-11-23T09:58:02.452Z,8.20
2022-11-23T10:00:36.554Z,8.20
2022-11-23T10:03:05.238Z,8.30
2022-11-23T10:05:38.701Z,8.30
2022-11-23T10:08:18.129Z,8.30
2022-11-23T10:10:53.149Z,8.30
2022-11-23T10:13:32.088Z,8.30
2022-11-23T10:16:17.521Z,9.20
2022-11-23T10:18:56.185Z,8.30
2022-11-23T10:21:33.784Z,8.30
2022-11-23T10:24:14.385Z,8.30
2022-11-23T10:26:45.516Z,8.30
2022-11-23T10:29:17.180Z,8.30
2022-11-23T10:31:51.494Z,8.30
2022-11-23T10:34:31.209Z,8.30
2022-11-23T10:36:59.633Z,8.30
2022-11-23T10:39:29.562Z,8.20
2022-11-23T10:42:04.169Z,8.30
2022-11-23T10:44:33.767Z,8.20
2022-11-23T10:47:02.105Z,8.20
2022-11-23T10:49:32.960Z,8.20
2022-11-23T10:52:03.935Z,8.20
2022-11-23T10:54:36.288Z,8.20
2022-11-23T10:57:22.486Z,8.30
2022-11-23T10:59:59.322Z,8.30
2022-11-23T11:02:27.897Z,8.30
2022-11-23T11:05:39.934Z,8.30
2022-11-23T11:08:16.146Z,8.30
2022-11-23T11:10:50.043Z,8.30
2022-11-23T11:13:24.257Z,8.40
2022-11-23T11:15:56.853Z,8.40
2022-11-23T11:18:29.907Z,8.40
2022-11-23T11:21:01.521Z,8.40
2022-11-23T11:23:31.523Z,8.40
2022-11-23T11:26:11.088Z,8.40
2022-11-23T11:28:44.074Z,8.40
2022-11-23T11:31:28.738Z,8.40
2022-11-23T11:34:06.347Z,8.40
2022-11-23T11:36:40.662Z,8.50
2022-11-23T11:39:18.804Z,8.40
2022-11-23T11:41:52.252Z,8.50
2022-11-23T11:44:23.383Z,8.50
2022-11-23T11:46:57.442Z,8.70
2022-11-23T11:49:29.777Z,8.60
2022-11-23T11:52:03.827Z,8.30
2022-11-23T11:54:39.327Z,8.70
2022-11-23T11:57:17.021Z,8.70
2022-11-23T11:59:48.978Z,8.70
2022-11-23T12:02:24.476Z,8.70
2022-11-23T12:05:00.436Z,8.80
2022-11-23T12:07:32.365Z,8.80
2022-11-23T12:10:10.740Z,8.90
2022-11-23T12:12:41.213Z,8.90
2022-11-23T12:15:41.405Z,9.00
2022-11-23T12:18:39.452Z,9.00
2022-11-23T12:21:23.846Z,9.00
2022-11-23T12:23:58.404Z,9.00
2022-11-23T12:26:34.054Z,9.10
2022-11-23T12:29:32.709Z,9.10
2022-11-23T12:32:10.332Z,9.10
2022-11-23T12:34:58.034Z,9.10
2022-11-23T12:37:40.059Z,9.10
2022-11-23T12:40:44.782Z,9.40
2022-11-23T12:43:17.728Z,9.10
2022-11-23T12:46:04.941Z,9.10
2022-11-23T12:48:47.368Z,9.10
2022-11-23T12:51:24.307Z,9.00
2022-11-23T12:54:04.590Z,8.90
2022-11-23T12:57:00.500Z,8.90
2022-11-23T12:59:40.788Z,8.90
2022-11-23T13:02:33.586Z,8.90
2022-11-23T13:05:24.560Z,8.80
2022-11-23T13:08:09.333Z,8.80
2022-11-23T13:10:49.206Z,8.70
2022-11-23T13:13:27.871Z,8.70
2022-11-23T13:16:19.882Z,8.70
2022-11-23T13:19:07.143Z,8.60
2022-11-23T13:21:38.427Z,8.50
2022-11-23T13:24:24.801Z,8.60
2022-11-23T13:27:46.629Z,8.60
2022-11-23T13:30:27.361Z,8.50
2022-11-23T13:33:29.331Z,8.50
2022-11-23T13:36:08.712Z,8.50
2022-11-23T13:38:44.073Z,8.50
2022-11-23T13:41:57.843Z,8.50
2022-11-23T13:44:31.524Z,8.50
2022-11-23T13:47:18.157Z,8.30
2022-11-23T13:49:48.384Z,8.40
2022-11-23T13:52:36.327Z,8.60
2022-11-23T13:55:19.660Z,8.40
2022-11-23T13:58:03.386Z,8.50
2022-11-23T14:00:46.886Z,8.40
2022-11-23T14:03:50.672Z,8.40
2022-11-23T14:06:38.128Z,8.40
2022-11-23T14:09:17.165Z,8.40
2022-11-23T14:11:56.994Z,8.40
2022-11-23T14:14:30.026Z,8.40
2022-11-23T14:17:23.827Z,8.40
2022-11-23T14:20:12.643Z,8.40
2022-11-23T14:22:49.132Z,8.40
2022-11-23T14:25:38.766Z,8.40
2022-11-23T14:28:19.014Z,8.40
2022-11-23T14:31:01.090Z,8.40
2022-11-23T14:33:37.851Z,8.40
2022-11-23T14:36:17.559Z,8.80
2022-11-23T14:39:04.981Z,8.40
2022-11-23T14:41:37.037Z,8.40
2022-11-23T14:44:07.336Z,8.40
2022-11-23T14:46:35.249Z,8.40
2022-11-23T14:49:07.957Z,8.40
2022-11-23T14:51:36.792Z,8.50
2022-11-23T14:54:11.123Z,8.50
2022-11-23T14:56:43.905Z,9.00
2022-11-23T14:59:21.768Z,8.50
2022-11-23T15:01:52.678Z,8.50
2022-11-23T15:04:26.616Z,8.50
2022-11-23T15:06:58.935Z,8.50
2022-11-23T15:09:48.121Z,8.50
2022-11-23T15:12:25.210Z,8.50
2022-11-23T15:14:54.124Z,8.40
2022-11-23T15:17:23.350Z,8.50
2022-11-23T15:19:56.164Z,8.50
2022-11-23T15:22:25.578Z,8.50
2022-11-23T15:24:53.720Z,8.50
2022-11-23T15:27:28.642Z,8.50
2022-11-23T15:29:58.636Z,8.50
2022-11-23T15:32:32.191Z,8.50
2022-11-23T15:35:03.861Z,8.50
2022-11-23T15:37:32.641Z,8.50
2022-11-23T15:40:01.134Z,8.50
2022-11-23T15:42:30.586Z,8.50
2022-11-23T15:44:58.746Z,8.50
2022-11-23T15:47:30.918Z,8.50
2022-11-23T15:50:02.210Z,8.50
2022-11-23T15:52:34.673Z,8.50
2022-11-23T15:55:08.888Z,8.60
2022-11-23T15:57:41.280Z,8.50
2022-11-23T16:00:22.331Z,8.60
2022-11-23T16:02:50.975Z,8.50
2022-11-23T16:05:22.314Z,8.50
2022-11-23T16:07:52.654Z,8.50
2022-11-23T16:10:23.200Z,8.60
2022-11-23T16:12:53.739Z,8.70
2022-11-23T16:15:41.546Z,8.50
2022-11-23T16:18:24.804Z,8.50
2022-11-23T16:20:55.453Z,8.60
2022-11-23T16:23:25.798Z,8.60
2022-11-23T16:25:56.441Z,8.70
2022-11-23T16:28:29.629Z,8.50
2022-11-23T16:30:58.160Z,8.50
2022-11-23T16:33:27.261Z,8.50
2022-11-23T16:35:55.447Z,8.50
2022-11-23T16:38:23.767Z,8.50
2022-11-23T16:40:51.767Z,8.30
2022-11-23T16:43:20.262Z,8.50
2022-11-23T16:45:52.088Z,8.40
2022-11-23T16:48:40.224Z,8.40
2022-11-23T16:51:14.176Z,8.50
2022-11-23T16:54:12.570Z,8.40
2022-11-23T16:56:34.931Z,8.50
2022-11-23T16:59:03.042Z,8.50
2022-11-23T17:01:40.713Z,8.40
2022-11-23T17:04:11.010Z,8.50
2022-11-23T17:06:41.101Z,8.30
2022-11-23T17:09:08.996Z,8.30
2022-11-23T17:11:39.869Z,8.30
2022-11-23T17:14:17.864Z,8.30
2022-11-23T17:16:48.265Z,8.30
2022-11-23T17:19:17.607Z,8.30
2022-11-23T17:21:45.680Z,8.30
2022-11-23T17:24:14.293Z,8.30
2022-11-23T17:26:45.705Z,8.20
2022-11-23T17:29:21.703Z,8.20
2022-11-23T17:31:52.032Z,8.20
2022-11-23T17:34:19.931Z,8.20
2022-11-23T17:36:50.541Z,8.10
2022-11-23T17:39:21.595Z,8.10
2022-11-23T17:41:49.798Z,8.10
2022-11-23T17:44:18.249Z,8.00
2022-11-23T17:46:47.692Z,8.00
2022-11-23T17:49:20.034Z,8.00
2022-11-23T17:51:48.191Z,8.00
2022-11-23T17:54:16.080Z,8.00
2022-11-23T17:56:44.114Z,8.20
2022-11-23T17:59:12.108Z,7.90
2022-11-23T18:01:40.028Z,7.90
2022-11-23T18:04:08.044Z,7.80
2022-11-23T18:06:37.308Z,7.80
2022-11-23T18:09:06.536Z,7.80
2022-11-23T18:11:34.613Z,7.80
2022-11-23T18:14:03.258Z,7.80
2022-11-23T18:16:31.472Z,7.70
2022-11-23T18:18:59.449Z,7.70
2022-11-23T18:21:27.337Z,7.70
2022-11-23T18:24:01.475Z,7.70
2022-11-23T18:26:32.381Z,7.60
2022-11-23T18:29:00.252Z,7.60
2022-11-23T18:31:28.518Z,7.60
2022-11-23T18:33:56.818Z,7.60
2022-11-23T18:36:24.809Z,7.80
2022-11-23T18:38:52.762Z,7.60
2022-11-23T18:41:22.801Z,7.60
2022-11-23T18:43:51.140Z,7.60
2022-11-23T18:46:19.882Z,7.60
2022-11-23T18:48:48.819Z,7.60
2022-11-23T18:51:17.290Z,7.60
2022-11-23T18:53:47.444Z,7.60
2022-11-23T18:56:17.843Z,7.60
2022-11-23T18:58:47.168Z,7.60
2022-11-23T19:01:17.721Z,7.60
2022-11-23T19:03:47.631Z,7.50
2022-11-23T19:06:16.912Z,7.50
2022-11-23T19:08:47.196Z,7.50
2022-11-23T19:11:17.998Z,7.50
2022-11-23T19:13:49.501Z,7.60
2022-11-23T19:16:21.415Z,7.60
2022-11-23T19:18:54.202Z,7.60
2022-11-23T19:21:24.209Z,7.60
2022-11-23T19:23:54.649Z,7.80
2022-11-23T19:26:24.621Z,7.70
2022-11-23T19:28:58.138Z,7.70
2022-11-23T19:31:27.994Z,7.70
2022-11-23T19:34:00.732Z,7.70
2022-11-23T19:36:30.389Z,7.70
2022-11-23T19:39:00.388Z,8.00
2022-11-23T19:41:30.658Z,7.60
2022-11-23T19:44:01.457Z,7.60
2022-11-23T19:46:30.465Z,7.70
2022-11-23T19:48:59.587Z,7.70
2022-11-23T19:51:28.957Z,7.70
2022-11-23T19:53:58.020Z,7.70
2022-11-23T19:56:28.991Z,7.80
2022-11-23T19:58:59.009Z,7.90
2022-11-23T20:01:32.096Z,7.90
2022-11-23T20:04:08.663Z,8.50
2022-11-23T20:06:43.341Z,7.90
2022-11-23T20:09:13.346Z,8.50
2022-11-23T20:11:45.833Z,7.90
2022-11-23T20:14:16.589Z,7.80
2022-11-23T20:16:47.624Z,7.80
2022-11-23T20:19:15.631Z,7.80
2022-11-23T20:21:43.625Z,7.80
2022-11-23T20:24:14.025Z,8.00
2022-11-23T20:26:42.888Z,7.70
2022-11-23T20:29:11.588Z,7.80
2022-11-23T20:31:39.864Z,7.70
2022-11-23T20:34:15.350Z,7.70
2022-11-23T20:36:46.608Z,7.70
2022-11-23T20:39:16.218Z,7.70
2022-11-23T20:41:45.243Z,7.70
2022-11-23T20:44:15.367Z,7.80
2022-11-23T20:49:33.456Z,7.80
2022-11-23T20:52:02.166Z,8.00
2022-11-23T20:54:30.465Z,7.80
2022-11-23T20:57:00.324Z,7.80
2022-11-23T20:59:28.943Z,7.70
2022-11-23T21:01:57.635Z,7.80
2022-11-23T21:04:26.169Z,7.80
2022-11-23T21:06:55.667Z,7.80
2022-11-23T21:09:23.711Z,7.90
2022-11-23T21:12:09.375Z,7.80
2022-11-23T21:14:37.351Z,7.80
2022-11-23T21:17:06.069Z,7.80
2022-11-23T21:19:36.505Z,8.10
2022-11-23T21:22:07.422Z,7.80
2022-11-23T21:24:36.260Z,7.80
2022-11-23T21:27:05.472Z,7.80
2022-11-23T21:29:33.787Z,7.80
2022-11-23T21:32:02.486Z,7.70
2022-11-23T21:34:31.837Z,7.80
2022-11-23T21:37:00.212Z,7.80
2022-11-23T21:39:31.882Z,8.20
2022-11-23T21:41:59.916Z,7.80
2022-11-23T21:44:27.969Z,7.90
2022-11-23T21:46:55.950Z,7.80
2022-11-23T21:49:24.187Z,7.80
2022-11-23T21:51:52.378Z,8.30
2022-11-23T21:54:20.554Z,7.90
2022-11-23T21:56:51.247Z,7.80
2022-11-23T21:59:21.501Z,8.40
2022-11-23T22:01:49.761Z,7.80
2022-11-23T22:04:17.960Z,7.80
2022-11-23T22:06:46.150Z,8.10
2022-11-23T22:09:15.082Z,7.90
2022-11-23T22:11:44.522Z,7.90
2022-11-23T22:14:15.803Z,8.00
2022-11-23T22:16:45.138Z,7.90
2022-11-23T22:19:14.954Z,7.90
2022-11-23T22:21:44.995Z,8.00
2022-11-23T22:24:14.498Z,8.00
2022-11-23T22:26:42.839Z,8.00
2022-11-23T22:29:11.826Z,8.00
2022-11-23T22:31:41.570Z,8.40
2022-11-23T22:34:12.845Z,8.10
2022-11-23T22:36:40.915Z,8.20
2022-11-23T22:39:10.008Z,8.20
2022-11-23T22:41:38.935Z,8.20
2022-11-23T22:44:08.141Z,8.30
2022-11-23T22:46:36.716Z,8.30
2022-11-23T22:49:06.340Z,8.40
2022-11-23T22:51:34.383Z,8.30
2022-11-23T22:54:02.780Z,8.30
2022-11-23T22:56:31.656Z,8.30
2022-11-23T22:59:00.311Z,8.30
2022-11-23T23:01:30.057Z,8.30
2022-11-23T23:03:59.752Z,8.30
2022-11-23T23:06:30.887Z,8.60
2022-11-23T23:09:00.136Z,8.70
2022-11-23T23:11:29.870Z,8.30
2022-11-23T23:13:58.138Z,8.30
2022-11-23T23:16:27.036Z,8.60
2022-11-23T23:18:56.655Z,8.30
2022-11-23T23:21:26.114Z,8.30
2022-11-23T23:23:56.865Z,8.30
2022-11-23T23:26:27.165Z,8.30
2022-11-23T23:28:56.449Z,8.30
2022-11-23T23:31:25.339Z,8.10
2022-11-23T23:33:54.667Z,8.20
2022-11-23T23:36:24.405Z,8.20
2022-11-23T23:38:52.806Z,8.20
2022-11-23T23:41:22.412Z,8.30
2022-11-23T23:43:50.432Z,8.30
2022-11-23T23:46:18.706Z,8.40
2022-11-23T23:48:46.942Z,8.30
2022-11-23T23:51:16.334Z,8.40
2022-11-23T23:53:45.422Z,8.50
2022-11-23T23:56:15.426Z,8.30
2022-11-23T23:58:45.233Z,8.20
